createdAt,value
2024-02-18T00:00:12.940Z,53.92
2024-02-18T00:01:13.962Z,53.09
2024-02-18T00:02:13.048Z,52.02
2024-02-18T00:03:13.084Z,54.47
2024-02-18T00:04:13.199Z,52.81
2024-02-18T00:05:13.249Z,53.19
2024-02-18T00:06:13.224Z,53.32
2024-02-18T00:07:13.995Z,52.86
2024-02-18T00:08:13.266Z,51.78
2024-02-18T00:09:13.312Z,53.71
2024-02-18T00:10:13.356Z,53.68
2024-02-18T00:11:13.397Z,52.10
2024-02-18T00:12:13.454Z,54.31
2024-02-18T00:13:13.457Z,51.16
2024-02-18T00:14:13.541Z,52.25
2024-02-18T00:15:13.572Z,54.79
2024-02-18T00:16:13.591Z,53.21
2024-02-18T00:17:13.618Z,53.53
2024-02-18T00:18:13.719Z,51.62
2024-02-18T00:19:13.879Z,52.69
2024-02-18T00:20:13.793Z,52.70
2024-02-18T00:21:13.781Z,54.20
2024-02-18T00:22:13.838Z,53.72
2024-02-18T00:23:13.864Z,53.05
2024-02-18T00:24:13.901Z,53.70
2024-02-18T00:25:13.937Z,52.37
2024-02-18T00:26:13.974Z,53.82
2024-02-18T00:27:14.007Z,53.38
2024-02-18T00:28:14.054Z,52.77
2024-02-18T00:29:14.116Z,54.49
2024-02-18T00:30:14.147Z,53.27
2024-02-18T00:31:14.192Z,54.05
2024-02-18T00:32:14.249Z,55.19
2024-02-18T00:33:14.451Z,53.18
2024-02-18T00:34:14.408Z,52.72
2024-02-18T00:35:14.361Z,52.70
2024-02-18T00:36:14.393Z,54.04
2024-02-18T00:37:14.440Z,53.52
2024-02-18T00:38:14.487Z,53.77
2024-02-18T00:39:14.515Z,55.31
2024-02-18T00:40:14.616Z,54.56
2024-02-18T00:41:14.604Z,53.32
2024-02-18T00:42:14.645Z,54.34
2024-02-18T00:43:14.684Z,52.80
2024-02-18T00:44:14.720Z,52.47
2024-02-18T00:45:14.766Z,53.34
2024-02-18T00:46:24.349Z,52.80
2024-02-18T00:47:15.801Z,52.89
2024-02-18T00:48:14.821Z,53.00
2024-02-18T00:49:14.841Z,53.29
2024-02-18T00:50:14.767Z,53.90
2024-02-18T00:51:14.757Z,51.94
2024-02-18T00:52:14.823Z,54.04
2024-02-18T00:53:14.731Z,54.54
2024-02-18T00:54:14.761Z,53.48
2024-02-18T00:55:14.762Z,56.08
2024-02-18T00:56:14.684Z,55.68
2024-02-18T00:57:14.694Z,53.49
2024-02-18T00:58:14.733Z,54.42
2024-02-18T00:59:14.785Z,54.90
2024-02-18T01:00:15.500Z,52.51
2024-02-18T01:01:14.951Z,53.11
2024-02-18T01:02:15.070Z,53.61
2024-02-18T01:03:14.989Z,54.95
2024-02-18T01:04:15.042Z,54.23
2024-02-18T01:05:15.089Z,53.72
2024-02-18T01:06:15.071Z,52.69
2024-02-18T01:07:15.169Z,52.99
2024-02-18T01:08:15.152Z,52.20
2024-02-18T01:09:15.200Z,52.99
2024-02-18T01:10:15.216Z,53.37
2024-02-18T01:11:15.290Z,53.85
2024-02-18T01:12:15.305Z,53.12
2024-02-18T01:13:15.365Z,52.10
2024-02-18T01:14:15.382Z,52.75
2024-02-18T01:15:15.428Z,54.33
2024-02-18T01:16:15.444Z,54.39
2024-02-18T01:17:15.502Z,53.44
2024-02-18T01:18:15.560Z,53.95
2024-02-18T01:19:15.647Z,52.00
2024-02-18T01:20:15.600Z,53.15
2024-02-18T01:21:15.636Z,51.78
2024-02-18T01:22:15.677Z,52.74
2024-02-18T01:23:15.722Z,53.47
2024-02-18T01:24:15.758Z,53.99
2024-02-18T01:25:15.816Z,53.88
2024-02-18T01:26:15.844Z,52.71
2024-02-18T01:27:15.885Z,53.17
2024-02-18T01:28:15.916Z,53.37
2024-02-18T01:29:15.964Z,53.75
2024-02-18T01:30:16.005Z,53.58
2024-02-18T01:31:16.031Z,50.51
2024-02-18T01:32:16.066Z,52.57
2024-02-18T01:33:16.116Z,53.46
2024-02-18T01:34:16.310Z,53.95
2024-02-18T01:35:16.244Z,51.39
2024-02-18T01:36:16.212Z,54.21
2024-02-18T01:37:16.250Z,52.26
2024-02-18T01:38:16.295Z,53.10
2024-02-18T01:39:16.350Z,53.69
2024-02-18T01:40:16.421Z,53.18
2024-02-18T01:41:16.436Z,52.76
2024-02-18T01:42:16.467Z,52.88
2024-02-18T01:43:16.513Z,52.42
2024-02-18T01:44:16.551Z,55.28
2024-02-18T01:45:16.589Z,53.18
2024-02-18T01:46:16.632Z,53.65
2024-02-18T01:47:16.680Z,52.97
2024-02-18T01:48:16.889Z,53.17
2024-02-18T01:49:16.898Z,53.31
2024-02-18T01:50:16.976Z,52.84
2024-02-18T01:51:16.863Z,52.72
2024-02-18T01:52:16.903Z,53.19
2024-02-18T01:53:16.951Z,52.00
2024-02-18T01:54:16.963Z,54.38
2024-02-18T01:55:17.031Z,52.42
2024-02-18T01:56:17.076Z,52.36
2024-02-18T01:57:17.100Z,53.34
2024-02-18T01:58:17.149Z,54.73
2024-02-18T01:59:17.199Z,52.40
2024-02-18T02:00:17.240Z,54.12
2024-02-18T02:01:17.354Z,54.44
2024-02-18T02:02:17.333Z,54.68
2024-02-18T02:03:17.382Z,53.01
2024-02-18T02:04:17.514Z,53.63
2024-02-18T02:05:17.465Z,53.36
2024-02-18T02:06:17.587Z,52.69
2024-02-18T02:07:17.524Z,53.91
2024-02-18T02:08:17.568Z,53.04
2024-02-18T02:09:17.623Z,51.71
2024-02-18T02:10:17.659Z,54.14
2024-02-18T02:11:17.723Z,53.53
2024-02-18T02:12:17.740Z,53.48
2024-02-18T02:13:17.777Z,53.20
2024-02-18T02:14:17.819Z,52.90
2024-02-18T02:15:17.930Z,53.52
2024-02-18T02:16:17.896Z,53.03
2024-02-18T02:17:17.928Z,50.96
2024-02-18T02:18:18.012Z,51.36
2024-02-18T02:19:18.077Z,54.80
2024-02-18T02:20:18.046Z,53.75
2024-02-18T02:21:18.075Z,53.25
2024-02-18T02:22:18.120Z,52.92
2024-02-18T02:23:18.153Z,51.08
2024-02-18T02:24:18.184Z,52.60
2024-02-18T02:25:18.226Z,52.37
2024-02-18T02:26:18.280Z,53.80
2024-02-18T02:27:18.342Z,53.63
2024-02-18T02:28:18.345Z,53.09
2024-02-18T02:29:18.391Z,53.57
2024-02-18T02:30:18.530Z,53.32
2024-02-18T02:31:18.485Z,52.35
2024-02-18T02:32:18.517Z,53.58
2024-02-18T02:33:18.637Z,52.03
2024-02-18T02:34:18.656Z,52.28
2024-02-18T02:35:18.737Z,52.10
2024-02-18T02:36:18.872Z,53.52
2024-02-18T02:37:18.713Z,53.97
2024-02-18T02:38:18.845Z,53.83
2024-02-18T02:39:18.977Z,54.13
2024-02-18T02:40:18.845Z,53.52
2024-02-18T02:41:18.856Z,52.79
2024-02-18T02:42:19.127Z,52.47
2024-02-18T02:43:18.930Z,54.04
2024-02-18T02:44:18.959Z,52.19
2024-02-18T02:45:19.202Z,53.89
2024-02-18T02:46:19.032Z,53.00
2024-02-18T02:47:19.083Z,52.47
2024-02-18T02:48:19.246Z,53.64
2024-02-18T02:49:19.219Z,53.07
2024-02-18T02:50:19.216Z,53.04
2024-02-18T02:51:19.279Z,52.24
2024-02-18T02:52:19.282Z,53.50
2024-02-18T02:53:19.329Z,53.07
2024-02-18T02:54:19.419Z,52.79
2024-02-18T02:55:19.409Z,53.36
2024-02-18T02:56:19.438Z,54.13
2024-02-18T02:57:19.574Z,52.88
2024-02-18T02:58:19.521Z,53.64
2024-02-18T02:59:19.558Z,51.89
2024-02-18T03:00:19.692Z,53.03
2024-02-18T03:01:19.715Z,52.19
2024-02-18T03:02:19.674Z,52.13
2024-02-18T03:03:19.761Z,52.89
2024-02-18T03:04:19.908Z,51.28
2024-02-18T03:05:19.853Z,53.25
2024-02-18T03:06:19.946Z,51.29
2024-02-18T03:07:19.915Z,52.50
2024-02-18T03:08:19.922Z,52.44
2024-02-18T03:09:20.127Z,53.74
2024-02-18T03:10:19.987Z,53.51
2024-02-18T03:11:20.032Z,54.21
2024-02-18T03:12:20.177Z,53.59
2024-02-18T03:13:20.174Z,52.95
2024-02-18T03:14:20.144Z,51.93
2024-02-18T03:15:20.212Z,53.88
2024-02-18T03:16:20.239Z,52.11
2024-02-18T03:17:20.267Z,51.71
2024-02-18T03:18:20.420Z,53.50
2024-02-18T03:19:20.423Z,52.44
2024-02-18T03:20:20.410Z,51.72
2024-02-18T03:21:20.559Z,52.56
2024-02-18T03:22:20.449Z,53.88
2024-02-18T03:23:20.484Z,52.29
2024-02-18T03:24:20.564Z,54.59
2024-02-18T03:25:20.552Z,52.44
2024-02-18T03:26:20.598Z,52.33
2024-02-18T03:27:20.801Z,52.64
2024-02-18T03:28:20.675Z,53.14
2024-02-18T03:29:20.697Z,52.28
2024-02-18T03:30:20.782Z,52.88
2024-02-18T03:31:20.807Z,54.67
2024-02-18T03:32:20.818Z,51.38
2024-02-18T03:33:20.874Z,52.16
2024-02-18T03:34:20.960Z,51.71
2024-02-18T03:35:20.941Z,53.61
2024-02-18T03:36:21.061Z,53.08
2024-02-18T03:37:21.014Z,52.85
2024-02-18T03:38:21.103Z,51.92
2024-02-18T03:39:23.493Z,51.90
2024-02-18T03:40:21.326Z,51.82
2024-02-18T03:41:21.399Z,53.67
2024-02-18T03:42:21.448Z,53.65
2024-02-18T03:43:21.434Z,51.78
2024-02-18T03:44:21.492Z,53.13
2024-02-18T03:45:21.572Z,53.69
2024-02-18T03:46:21.529Z,54.90
2024-02-18T03:47:21.564Z,52.87
2024-02-18T03:48:21.704Z,53.29
2024-02-18T03:49:21.748Z,52.76
2024-02-18T03:50:21.658Z,52.90
2024-02-18T03:51:21.710Z,53.39
2024-02-18T03:52:21.704Z,52.43
2024-02-18T03:53:21.737Z,54.33
2024-02-18T03:54:21.782Z,53.13
2024-02-18T03:55:21.793Z,52.21
2024-02-18T03:56:21.820Z,52.91
2024-02-18T03:57:21.935Z,52.61
2024-02-18T03:58:21.906Z,53.42
2024-02-18T03:59:22.088Z,52.88
2024-02-18T04:00:21.993Z,53.77
2024-02-18T04:01:22.172Z,54.30
2024-02-18T04:02:22.038Z,52.93
2024-02-18T04:03:22.219Z,53.32
2024-02-18T04:04:22.251Z,53.22
2024-02-18T04:05:22.199Z,53.33
2024-02-18T04:06:22.371Z,53.54
2024-02-18T04:07:22.289Z,53.01
2024-02-18T04:08:22.300Z,53.31
2024-02-18T04:09:22.342Z,52.88
2024-02-18T04:10:22.412Z,53.32
2024-02-18T04:11:22.515Z,52.56
2024-02-18T04:12:22.502Z,53.62
2024-02-18T04:13:22.496Z,54.19
2024-02-18T04:14:22.486Z,52.73
2024-02-18T04:15:22.595Z,52.99
2024-02-18T04:16:22.576Z,51.76
2024-02-18T04:17:22.627Z,53.58
2024-02-18T04:18:22.862Z,53.48
2024-02-18T04:19:22.773Z,53.62
2024-02-18T04:20:22.733Z,53.60
2024-02-18T04:21:22.873Z,54.20
2024-02-18T04:22:22.812Z,53.99
2024-02-18T04:23:22.828Z,54.71
2024-02-18T04:24:22.899Z,54.03
2024-02-18T04:25:22.902Z,54.12
2024-02-18T04:26:22.933Z,54.64
2024-02-18T04:27:23.001Z,54.08
2024-02-18T04:28:23.013Z,53.42
2024-02-18T04:29:23.040Z,52.85
2024-02-18T04:30:23.124Z,54.63
2024-02-18T04:31:23.113Z,53.21
2024-02-18T04:32:23.141Z,53.72
2024-02-18T04:33:23.358Z,51.50
2024-02-18T04:34:23.352Z,53.61
2024-02-18T04:35:23.258Z,52.85
2024-02-18T04:36:23.310Z,54.70
2024-02-18T04:37:23.322Z,53.95
2024-02-18T04:38:23.354Z,53.75
2024-02-18T04:39:23.408Z,54.47
2024-02-18T04:40:23.430Z,54.82
2024-02-18T04:41:23.462Z,53.88
2024-02-18T04:42:23.545Z,54.82
2024-02-18T04:43:23.574Z,54.94
2024-02-18T04:44:23.586Z,53.44
2024-02-18T04:45:23.689Z,53.76
2024-02-18T04:46:23.651Z,51.81
2024-02-18T04:47:23.880Z,52.99
2024-02-18T04:48:24.116Z,53.32
2024-02-18T04:49:23.887Z,53.28
2024-02-18T04:50:23.808Z,53.78
2024-02-18T04:51:23.867Z,52.73
2024-02-18T04:52:23.874Z,53.73
2024-02-18T04:53:23.937Z,53.68
2024-02-18T04:54:23.979Z,53.27
2024-02-18T04:55:23.990Z,55.39
2024-02-18T04:56:24.032Z,53.87
2024-02-18T04:57:24.136Z,54.03
2024-02-18T04:58:24.115Z,52.72
2024-02-18T04:59:24.154Z,56.91
2024-02-18T05:00:24.214Z,53.79
2024-02-18T05:01:31.587Z,50.00
2024-02-18T05:02:31.527Z,50.00
2024-02-18T05:03:31.541Z,50.00
2024-02-18T05:04:31.494Z,50.00
2024-02-18T05:05:31.523Z,50.00
2024-02-18T05:06:31.524Z,49.75
2024-02-18T05:07:31.461Z,51.25
2024-02-18T05:08:31.464Z,50.86
2024-02-18T05:09:31.527Z,50.00
2024-02-18T05:10:31.457Z,51.10
2024-02-18T05:11:31.455Z,52.19
2024-02-18T05:12:31.518Z,52.56
2024-02-18T05:13:31.407Z,52.05
2024-02-18T05:14:31.401Z,50.68
2024-02-18T05:15:31.410Z,52.71
2024-02-18T05:16:31.384Z,51.75
2024-02-18T05:17:31.395Z,53.16
2024-02-18T05:18:31.450Z,52.96
2024-02-18T05:19:31.425Z,50.72
2024-02-18T05:20:31.359Z,53.23
2024-02-18T05:21:31.374Z,52.95
2024-02-18T05:22:31.343Z,51.50
2024-02-18T05:23:31.338Z,50.39
2024-02-18T05:24:31.338Z,54.11
2024-02-18T05:25:31.340Z,51.35
2024-02-18T05:26:31.311Z,51.54
2024-02-18T05:27:31.329Z,52.23
2024-02-18T05:28:31.392Z,52.47
2024-02-18T05:29:31.289Z,52.00
2024-02-18T05:30:31.318Z,53.19
2024-02-18T05:31:31.263Z,53.39
2024-02-18T05:32:31.346Z,52.50
2024-02-18T05:33:31.379Z,52.90
2024-02-18T05:34:31.575Z,53.58
2024-02-18T05:35:31.359Z,52.39
2024-02-18T05:36:31.272Z,53.05
2024-02-18T05:37:31.212Z,51.54
2024-02-18T05:38:31.206Z,53.19
2024-02-18T05:39:31.246Z,51.03
2024-02-18T05:40:31.213Z,52.91
2024-02-18T05:41:31.266Z,52.51
2024-02-18T05:42:31.267Z,53.36
2024-02-18T05:43:31.295Z,54.13
2024-02-18T05:44:31.336Z,50.95
2024-02-18T05:45:31.395Z,51.94
2024-02-18T05:46:31.412Z,52.45
2024-02-18T05:47:31.462Z,52.33
2024-02-18T05:48:31.548Z,52.50
2024-02-18T05:49:31.629Z,54.04
2024-02-18T05:50:31.526Z,54.09
2024-02-18T05:51:31.637Z,53.16
2024-02-18T05:52:31.606Z,51.38
2024-02-18T05:53:31.634Z,53.47
2024-02-18T05:54:31.686Z,53.21
2024-02-18T05:55:31.700Z,53.62
2024-02-18T05:56:31.739Z,51.58
2024-02-18T05:57:31.792Z,51.68
2024-02-18T05:58:31.856Z,54.58
2024-02-18T05:59:31.819Z,52.99
2024-02-18T06:00:32.073Z,50.52
2024-02-18T06:01:32.000Z,51.95
2024-02-18T06:02:31.923Z,51.34
2024-02-18T06:03:31.985Z,53.58
2024-02-18T06:04:32.077Z,53.22
2024-02-18T06:05:32.097Z,53.88
2024-02-18T06:06:32.155Z,52.92
2024-02-18T06:07:32.138Z,53.27
2024-02-18T06:08:32.125Z,52.06
2024-02-18T06:09:32.279Z,54.43
2024-02-18T06:10:32.265Z,51.53
2024-02-18T06:11:32.277Z,53.59
2024-02-18T06:12:32.321Z,54.01
2024-02-18T06:13:32.310Z,52.67
2024-02-18T06:14:32.361Z,52.87
2024-02-18T06:15:32.425Z,51.69
2024-02-18T06:16:32.487Z,51.66
2024-02-18T06:17:32.504Z,50.76
2024-02-18T06:18:32.564Z,52.59
2024-02-18T06:19:32.598Z,51.68
2024-02-18T06:20:32.486Z,53.24
2024-02-18T06:21:32.525Z,53.68
2024-02-18T06:22:32.575Z,52.94
2024-02-18T06:23:32.562Z,52.03
2024-02-18T06:24:32.631Z,51.98
2024-02-18T06:25:32.659Z,54.06
2024-02-18T06:26:32.677Z,53.15
2024-02-18T06:27:32.785Z,52.99
2024-02-18T06:28:32.723Z,51.94
2024-02-18T06:29:32.745Z,52.53
2024-02-18T06:30:32.831Z,52.22
2024-02-18T06:31:32.801Z,54.06
2024-02-18T06:32:32.917Z,54.40
2024-02-18T06:33:32.990Z,52.52
2024-02-18T06:34:33.039Z,53.62
2024-02-18T06:35:33.128Z,53.37
2024-02-18T06:36:32.926Z,52.84
2024-02-18T06:37:32.924Z,51.32
2024-02-18T06:38:32.955Z,52.18
2024-02-18T06:39:32.996Z,53.49
2024-02-18T06:40:33.000Z,52.83
2024-02-18T06:41:33.186Z,52.57
2024-02-18T06:42:33.049Z,52.32
2024-02-18T06:43:33.039Z,54.50
2024-02-18T06:44:33.058Z,54.93
2024-02-18T06:45:33.107Z,54.91
2024-02-18T06:46:33.072Z,54.46
2024-02-18T06:47:33.147Z,53.53
2024-02-18T06:48:33.203Z,51.34
2024-02-18T06:49:33.202Z,52.92
2024-02-18T06:50:33.116Z,54.71
2024-02-18T06:51:33.165Z,52.81
2024-02-18T06:52:33.139Z,53.65
2024-02-18T06:53:33.169Z,54.45
2024-02-18T06:54:33.184Z,53.68
2024-02-18T06:55:33.178Z,53.71
2024-02-18T06:56:33.181Z,53.62
2024-02-18T06:57:33.203Z,50.75
2024-02-18T06:58:33.197Z,52.58
2024-02-18T06:59:33.184Z,53.31
2024-02-18T07:00:33.225Z,53.26
2024-02-18T07:01:33.252Z,54.06
2024-02-18T07:02:33.202Z,53.58
2024-02-18T07:03:33.221Z,53.61
2024-02-18T07:04:33.324Z,54.06
2024-02-18T07:05:33.294Z,51.88
2024-02-18T07:06:33.289Z,52.47
2024-02-18T07:07:33.232Z,54.10
2024-02-18T07:08:33.206Z,52.93
2024-02-18T07:09:33.220Z,52.78
2024-02-18T07:10:33.207Z,52.56
2024-02-18T07:11:33.256Z,53.03
2024-02-18T07:12:33.237Z,52.34
2024-02-18T07:13:33.189Z,52.12
2024-02-18T07:14:33.183Z,53.32
2024-02-18T07:15:33.237Z,53.95
2024-02-18T07:16:33.198Z,53.86
2024-02-18T07:17:33.327Z,54.37
2024-02-18T07:18:33.352Z,54.25
2024-02-18T07:19:33.216Z,52.77
2024-02-18T07:20:33.178Z,52.75
2024-02-18T07:21:33.185Z,54.47
2024-02-18T07:22:33.195Z,53.88
2024-02-18T07:23:33.176Z,53.42
2024-02-18T07:24:33.184Z,52.84
2024-02-18T07:25:33.163Z,53.86
2024-02-18T07:26:33.163Z,54.77
2024-02-18T07:27:33.178Z,54.94
2024-02-18T07:28:33.148Z,55.01
2024-02-18T07:29:33.139Z,54.25
2024-02-18T07:30:33.170Z,54.07
2024-02-18T07:31:33.217Z,54.41
2024-02-18T07:32:33.134Z,53.46
2024-02-18T07:33:33.264Z,53.74
2024-02-18T07:34:33.275Z,53.41
2024-02-18T07:35:33.111Z,55.28
2024-02-18T07:36:33.224Z,55.25
2024-02-18T07:37:33.090Z,55.13
2024-02-18T07:38:33.079Z,55.56
2024-02-18T07:39:33.099Z,54.31
2024-02-18T07:40:33.088Z,54.43
2024-02-18T07:41:33.072Z,54.20
2024-02-18T07:42:33.161Z,54.66
2024-02-18T07:43:33.074Z,54.45
2024-02-18T07:44:33.057Z,53.81
2024-02-18T07:45:33.076Z,54.96
2024-02-18T07:46:33.034Z,55.17
2024-02-18T07:47:33.152Z,53.38
2024-02-18T07:48:33.137Z,53.97
2024-02-18T07:49:33.113Z,53.49
2024-02-18T07:50:33.024Z,55.17
2024-02-18T07:51:33.144Z,55.51
2024-02-18T07:52:33.093Z,55.84
2024-02-18T07:53:33.022Z,54.97
2024-02-18T07:54:33.028Z,54.00
2024-02-18T07:55:33.061Z,53.37
2024-02-18T07:56:33.009Z,53.40
2024-02-18T07:57:33.086Z,54.23
2024-02-18T07:58:33.013Z,54.66
2024-02-18T07:59:35.619Z,55.10
2024-02-18T08:00:33.116Z,55.11
2024-02-18T08:01:33.035Z,55.18
2024-02-18T08:02:32.934Z,54.91
2024-02-18T08:03:33.016Z,54.90
2024-02-18T08:04:33.053Z,54.90
2024-02-18T08:05:32.891Z,54.95
2024-02-18T08:06:32.919Z,53.88
2024-02-18T08:07:32.984Z,55.44
2024-02-18T08:08:32.906Z,55.76
2024-02-18T08:09:32.813Z,54.70
2024-02-18T08:10:32.784Z,54.46
2024-02-18T08:11:32.872Z,53.47
2024-02-18T08:12:32.783Z,56.27
2024-02-18T08:13:32.750Z,55.22
2024-02-18T08:14:32.739Z,53.48
2024-02-18T08:15:32.782Z,56.12
2024-02-18T08:16:32.693Z,54.22
2024-02-18T08:17:32.734Z,53.07
2024-02-18T08:18:32.907Z,51.90
2024-02-18T08:19:34.274Z,52.73
2024-02-18T08:20:32.682Z,50.41
2024-02-18T08:21:32.653Z,59.31
2024-02-18T08:22:32.621Z,56.29
2024-02-18T08:23:32.577Z,60.15
2024-02-18T08:24:32.729Z,59.23
2024-02-18T08:25:32.533Z,57.46
2024-02-18T08:26:32.515Z,58.04
2024-02-18T08:27:32.546Z,60.56
2024-02-18T08:28:32.475Z,54.89
2024-02-18T08:29:32.453Z,54.40
2024-02-18T08:30:32.444Z,55.63
2024-02-18T08:31:32.438Z,55.68
2024-02-18T08:32:32.524Z,58.16
2024-02-18T08:33:32.600Z,52.68
2024-02-18T08:34:32.652Z,53.90
2024-02-18T08:35:32.587Z,59.58
2024-02-18T08:36:32.663Z,56.98
2024-02-18T08:37:32.687Z,60.15
2024-02-18T08:38:32.707Z,60.74
2024-02-18T08:39:32.823Z,57.10
2024-02-18T08:40:32.891Z,61.51
2024-02-18T08:41:32.834Z,57.69
2024-02-18T08:42:32.922Z,59.40
2024-02-18T08:43:32.917Z,58.29
2024-02-18T08:44:32.951Z,60.16
2024-02-18T08:45:33.059Z,56.75
2024-02-18T08:46:34.996Z,61.54
2024-02-18T08:47:33.238Z,59.59
2024-02-18T08:48:33.382Z,60.16
2024-02-18T08:49:33.385Z,59.65
2024-02-18T08:50:33.290Z,59.55
2024-02-18T08:51:33.416Z,59.71
2024-02-18T08:52:33.401Z,59.51
2024-02-18T08:53:33.388Z,59.12
2024-02-18T08:54:33.501Z,57.60
2024-02-18T08:55:33.460Z,60.29
2024-02-18T08:56:33.596Z,58.91
2024-02-18T08:57:33.556Z,59.20
2024-02-18T08:58:33.518Z,59.38
2024-02-18T08:59:33.606Z,59.56
2024-02-18T09:00:33.586Z,57.94
2024-02-18T09:01:33.801Z,59.45
2024-02-18T09:02:33.589Z,60.24
2024-02-18T09:03:33.740Z,60.26
2024-02-18T09:04:33.768Z,59.03
2024-02-18T09:05:33.661Z,59.38
2024-02-18T09:06:33.715Z,62.28
2024-02-18T09:07:33.679Z,60.59
2024-02-18T09:08:33.645Z,61.86
2024-02-18T09:09:33.709Z,62.18
2024-02-18T09:10:33.652Z,62.23
2024-02-18T09:11:33.706Z,62.21
2024-02-18T09:12:33.753Z,64.55
2024-02-18T09:13:33.656Z,61.10
2024-02-18T09:14:33.652Z,62.22
2024-02-18T09:15:33.680Z,60.24
2024-02-18T09:16:33.648Z,62.03
2024-02-18T09:17:33.662Z,61.97
2024-02-18T09:18:33.672Z,62.65
2024-02-18T09:19:33.771Z,60.15
2024-02-18T09:20:33.706Z,63.45
2024-02-18T09:21:33.767Z,61.53
2024-02-18T09:22:33.801Z,63.70
2024-02-18T09:23:33.827Z,64.16
2024-02-18T09:24:33.920Z,62.80
2024-02-18T09:25:33.902Z,61.62
2024-02-18T09:26:33.939Z,61.41
2024-02-18T09:27:33.998Z,63.93
2024-02-18T09:28:35.127Z,64.41
2024-02-18T09:29:34.035Z,65.03
2024-02-18T09:30:34.140Z,66.15
2024-02-18T09:31:34.151Z,65.01
2024-02-18T09:32:34.076Z,65.44
2024-02-18T09:33:34.180Z,69.41
2024-02-18T09:34:34.129Z,69.40
2024-02-18T09:35:34.271Z,67.64
2024-02-18T09:36:34.073Z,69.72
2024-02-18T09:37:33.999Z,68.74
2024-02-18T09:38:33.972Z,70.07
2024-02-18T09:39:33.975Z,72.35
2024-02-18T09:40:33.960Z,71.17
2024-02-18T09:41:33.950Z,74.37
2024-02-18T09:42:33.985Z,73.61
2024-02-18T09:43:33.996Z,74.94
2024-02-18T09:44:34.099Z,77.22
2024-02-18T09:45:34.196Z,80.42
2024-02-18T09:46:35.488Z,79.96
2024-02-18T09:47:34.169Z,81.38
2024-02-18T09:48:34.228Z,82.51
2024-02-18T09:49:34.225Z,81.68
2024-02-18T09:50:34.189Z,81.87
2024-02-18T09:51:34.228Z,72.42
2024-02-18T09:52:34.205Z,70.77
2024-02-18T09:53:34.194Z,77.28
2024-02-18T09:54:34.244Z,84.16
2024-02-18T09:55:34.163Z,91.82
2024-02-18T09:56:34.129Z,95.60
2024-02-18T09:57:34.101Z,104.79
2024-02-18T09:58:34.049Z,112.69
2024-02-18T09:59:33.984Z,121.18
2024-02-18T10:00:34.040Z,129.18
2024-02-18T10:01:33.984Z,135.63
2024-02-18T10:02:33.835Z,141.61
2024-02-18T10:03:33.938Z,145.16
2024-02-18T10:04:33.819Z,146.94
2024-02-18T10:05:33.631Z,155.13
2024-02-18T10:06:33.684Z,158.63
2024-02-18T10:07:33.635Z,163.72
2024-02-18T10:08:33.459Z,165.82
2024-02-18T10:09:33.380Z,168.68
2024-02-18T10:10:33.275Z,172.13
2024-02-18T10:11:33.378Z,173.94
2024-02-18T10:12:33.154Z,177.06
2024-02-18T10:13:33.028Z,180.06
2024-02-18T10:14:32.936Z,182.59
2024-02-18T10:15:32.951Z,187.89
2024-02-18T10:16:32.804Z,199.64
2024-02-18T10:17:32.757Z,195.45
2024-02-18T10:18:32.948Z,189.96
2024-02-18T10:19:32.694Z,182.55
2024-02-18T10:20:32.565Z,173.79
2024-02-18T10:21:32.590Z,165.91
2024-02-18T10:22:32.479Z,157.20
2024-02-18T10:23:32.478Z,152.06
2024-02-18T10:24:32.536Z,145.94
2024-02-18T10:25:32.446Z,141.24
2024-02-18T10:26:32.429Z,138.95
2024-02-18T10:27:32.430Z,133.28
2024-02-18T10:28:32.335Z,127.20
2024-02-18T10:29:32.323Z,122.19
2024-02-18T10:30:32.426Z,120.27
2024-02-18T10:31:32.339Z,115.28
2024-02-18T10:32:32.448Z,111.57
2024-02-18T10:33:32.344Z,112.13
2024-02-18T10:34:32.420Z,108.99
2024-02-18T10:35:32.423Z,106.77
2024-02-18T10:36:32.351Z,106.75
2024-02-18T10:37:32.184Z,105.62
2024-02-18T10:38:32.174Z,100.91
2024-02-18T10:39:32.197Z,101.51
2024-02-18T10:40:32.147Z,100.39
2024-02-18T10:41:32.151Z,101.15
2024-02-18T10:42:32.162Z,98.67
2024-02-18T10:43:32.145Z,98.68
2024-02-18T10:44:32.142Z,96.67
2024-02-18T10:45:32.274Z,96.38
2024-02-18T10:46:32.204Z,95.40
2024-02-18T10:47:32.198Z,94.32
2024-02-18T10:48:32.393Z,95.09
2024-02-18T10:49:32.313Z,95.86
2024-02-18T10:50:32.269Z,92.12
2024-02-18T10:51:32.314Z,93.64
2024-02-18T10:52:32.273Z,93.82
2024-02-18T10:53:32.273Z,92.67
2024-02-18T10:54:32.312Z,92.82
2024-02-18T10:55:32.306Z,93.74
2024-02-18T10:56:32.322Z,89.20
2024-02-18T10:57:32.333Z,92.31
2024-02-18T10:58:32.301Z,90.33
2024-02-18T10:59:32.259Z,88.41
2024-02-18T11:00:32.244Z,90.29
2024-02-18T11:01:32.282Z,91.37
2024-02-18T11:02:32.169Z,93.36
2024-02-18T11:03:32.156Z,90.14
2024-02-18T11:04:32.106Z,90.27
2024-02-18T11:05:32.122Z,89.16
2024-02-18T11:06:32.225Z,88.77
2024-02-18T11:07:32.257Z,89.21
2024-02-18T11:08:32.037Z,86.49
2024-02-18T11:09:32.095Z,87.37
2024-02-18T11:10:32.006Z,85.96
2024-02-18T11:11:32.000Z,86.41
2024-02-18T11:12:32.007Z,87.43
2024-02-18T11:13:31.979Z,86.25
2024-02-18T11:14:31.963Z,84.69
2024-02-18T11:15:31.968Z,83.02
2024-02-18T11:16:35.890Z,86.34
2024-02-18T11:17:31.932Z,86.38
2024-02-18T11:18:32.022Z,86.16
2024-02-18T11:19:31.899Z,86.21
2024-02-18T11:20:31.863Z,85.35
2024-02-18T11:21:31.965Z,83.40
2024-02-18T11:22:31.699Z,82.22
2024-02-18T11:23:31.657Z,84.55
2024-02-18T11:24:31.736Z,85.01
2024-02-18T11:25:31.594Z,84.77
2024-02-18T11:26:31.543Z,84.38
2024-02-18T11:27:31.568Z,82.26
2024-02-18T11:28:31.464Z,83.58
2024-02-18T11:29:31.450Z,80.91
2024-02-18T11:30:31.436Z,79.82
2024-02-18T11:31:31.398Z,82.46
2024-02-18T11:32:31.376Z,81.33
2024-02-18T11:33:31.481Z,83.09
2024-02-18T11:34:31.348Z,82.28
2024-02-18T11:35:31.233Z,81.60
2024-02-18T11:36:31.245Z,81.99
2024-02-18T11:37:31.164Z,81.06
2024-02-18T11:38:31.119Z,82.20
2024-02-18T11:39:31.180Z,81.45
2024-02-18T11:40:31.098Z,78.93
2024-02-18T11:41:31.109Z,81.26
2024-02-18T11:42:31.161Z,82.27
2024-02-18T11:43:31.162Z,81.24
2024-02-18T11:44:31.187Z,80.64
2024-02-18T11:45:31.252Z,80.93
2024-02-18T11:46:31.235Z,80.29
2024-02-18T11:47:31.295Z,81.49
2024-02-18T11:48:31.426Z,81.55
2024-02-18T11:49:31.400Z,80.22
2024-02-18T11:50:31.362Z,78.59
2024-02-18T11:51:31.450Z,79.97
2024-02-18T11:52:31.525Z,80.38
2024-02-18T11:53:31.476Z,79.08
2024-02-18T11:54:31.542Z,81.38
2024-02-18T11:55:31.535Z,78.23
2024-02-18T11:56:31.583Z,79.97
2024-02-18T11:57:31.606Z,77.65
2024-02-18T11:58:31.656Z,79.63
2024-02-18T11:59:31.706Z,76.61
2024-02-18T12:00:31.787Z,78.20
2024-02-18T12:01:31.994Z,77.59
2024-02-18T12:02:31.816Z,78.44
2024-02-18T12:03:31.885Z,75.33
2024-02-18T12:04:31.878Z,79.01
2024-02-18T12:05:31.985Z,79.87
2024-02-18T12:06:31.982Z,78.89
2024-02-18T12:07:32.023Z,79.04
2024-02-18T12:08:32.064Z,79.36
2024-02-18T12:09:32.033Z,76.88
2024-02-18T12:10:32.017Z,76.32
2024-02-18T12:11:32.014Z,75.53
2024-02-18T12:12:32.024Z,76.23
2024-02-18T12:13:32.030Z,75.03
2024-02-18T12:14:32.105Z,77.05
2024-02-18T12:15:32.096Z,76.60
2024-02-18T12:16:32.074Z,79.40
2024-02-18T12:17:32.052Z,76.87
2024-02-18T12:18:32.209Z,73.98
2024-02-18T12:19:32.140Z,77.22
2024-02-18T12:20:32.075Z,75.25
2024-02-18T12:21:32.169Z,76.93
2024-02-18T12:22:32.147Z,77.28
2024-02-18T12:23:32.165Z,74.59
2024-02-18T12:24:32.270Z,73.78
2024-02-18T12:25:32.158Z,75.83
2024-02-18T12:26:32.148Z,76.45
2024-02-18T12:27:32.158Z,74.27
2024-02-18T12:28:32.195Z,74.48
2024-02-18T12:29:32.853Z,75.77
2024-02-18T12:30:32.248Z,75.54
2024-02-18T12:31:32.201Z,75.55
2024-02-18T12:32:32.213Z,74.64
2024-02-18T12:33:32.352Z,76.85
2024-02-18T12:34:32.335Z,75.71
2024-02-18T12:35:32.143Z,75.36
2024-02-18T12:36:32.179Z,75.08
2024-02-18T12:37:35.862Z,76.37
2024-02-18T12:38:32.092Z,74.17
2024-02-18T12:39:32.081Z,75.30
2024-02-18T12:40:32.039Z,75.64
2024-02-18T12:41:32.015Z,76.57
2024-02-18T12:42:31.988Z,75.37
2024-02-18T12:45:42.941Z,75.46
2024-02-18T12:46:32.926Z,76.74
2024-02-18T12:47:31.908Z,75.83
2024-02-18T12:48:31.966Z,73.93
2024-02-18T12:49:31.891Z,75.42
2024-02-18T12:50:32.208Z,76.71
2024-02-18T12:51:31.774Z,76.69
2024-02-18T12:52:31.689Z,73.57
2024-02-18T12:53:31.673Z,74.57